createdAt,value
2019-03-27T00:01:39.175Z,28.20
2019-03-27T00:06:42.386Z,26.70
2019-03-27T00:11:45.902Z,23.30
2019-03-27T00:16:49.114Z,32.13
2019-03-27T00:21:52.323Z,26.77
2019-03-27T00:26:55.533Z,25.60
2019-03-27T00:31:58.743Z,29.53
2019-03-27T00:37:01.953Z,22.10
2019-03-27T00:42:05.473Z,22.63
2019-03-27T00:47:08.991Z,17.23
2019-03-27T00:52:12.512Z,25.30
2019-03-27T00:57:16.024Z,21.60
2019-03-27T01:02:19.544Z,26.23
2019-03-27T01:07:23.058Z,22.90
2019-03-27T01:12:26.269Z,22.07
2019-03-27T01:17:29.478Z,27.27
2019-03-27T01:22:32.689Z,27.53
2019-03-27T01:27:35.970Z,27.73
2019-03-27T01:32:39.418Z,23.40
2019-03-27T01:37:42.934Z,22.30
2019-03-27T01:42:46.451Z,24.53
2019-03-27T01:47:49.969Z,21.00
2019-03-27T01:52:53.487Z,24.27
2019-03-27T01:57:57.006Z,26.00
2019-03-27T02:03:00.213Z,35.50
2019-03-27T02:08:03.426Z,20.97
2019-03-27T02:13:06.942Z,32.37
2019-03-27T02:18:10.461Z,34.70
2019-03-27T02:23:13.671Z,24.73
2019-03-27T02:28:16.918Z,24.27
2019-03-27T02:33:20.419Z,25.53
2019-03-27T02:38:23.637Z,27.63
2019-03-27T02:43:27.126Z,31.27
2019-03-27T02:48:30.644Z,30.93
2019-03-27T02:53:33.862Z,23.50
2019-03-27T02:58:37.094Z,23.47
2019-03-27T03:03:40.584Z,34.27
2019-03-27T03:08:43.791Z,25.57
2019-03-27T03:13:47.310Z,28.93
2019-03-27T03:18:50.827Z,24.07
2019-03-27T03:23:54.036Z,29.83
2019-03-27T03:28:57.250Z,26.20
2019-03-27T03:34:00.766Z,25.33
2019-03-27T03:39:05.732Z,27.03
2019-03-27T03:44:09.035Z,25.40
2019-03-27T03:49:12.237Z,26.87
2019-03-27T03:54:15.447Z,24.10
2019-03-27T03:59:21.123Z,30.00
2019-03-27T04:04:25.557Z,27.83
2019-03-27T04:09:28.778Z,35.53
2019-03-27T04:14:32.285Z,28.43
2019-03-27T04:19:35.799Z,33.60
2019-03-27T04:24:39.012Z,34.13
2019-03-27T04:29:44.064Z,31.50
2019-03-27T04:34:47.734Z,30.20
2019-03-27T04:39:51.098Z,35.90
2019-03-27T04:44:54.308Z,33.63
2019-03-27T04:49:58.134Z,31.83
2019-03-27T04:55:01.651Z,41.43
2019-03-27T05:00:05.578Z,39.93
2019-03-27T05:05:08.994Z,35.27
2019-03-27T05:10:12.821Z,33.07
2019-03-27T05:15:16.334Z,31.23
2019-03-27T05:20:19.851Z,42.70
2019-03-27T05:25:23.369Z,40.43
2019-03-27T05:30:27.523Z,52.27
2019-03-27T05:35:30.712Z,43.60
2019-03-27T05:40:34.228Z,40.73
2019-03-27T05:45:37.749Z,47.87
2019-03-27T05:50:40.965Z,44.37
2019-03-27T05:55:44.167Z,32.53
2019-03-27T06:00:47.378Z,37.67
2019-03-27T06:05:50.620Z,36.90
2019-03-27T06:10:53.829Z,30.83
2019-03-27T06:15:57.008Z,32.30
2019-03-27T06:21:00.218Z,35.33
2019-03-27T06:26:03.736Z,31.13
2019-03-27T06:31:06.947Z,28.00
2019-03-27T06:36:10.186Z,35.00
2019-03-27T06:41:13.674Z,27.67
2019-03-27T06:46:16.883Z,29.00
2019-03-27T06:51:20.126Z,24.13
2019-03-27T06:56:23.342Z,28.93
2019-03-27T07:01:26.821Z,28.37
2019-03-27T07:06:30.340Z,21.27
2019-03-27T07:11:33.549Z,29.70
2019-03-27T07:16:37.069Z,29.97
2019-03-27T07:21:42.043Z,28.73
2019-03-27T07:27:04.319Z,30.70
2019-03-27T07:32:07.593Z,27.27
2019-03-27T07:42:49.230Z,21.77
2019-03-27T07:47:52.416Z,22.67
2019-03-27T07:52:55.552Z,19.30
2019-03-27T07:57:58.757Z,20.40
2019-03-27T08:03:02.046Z,19.50
2019-03-27T08:08:05.179Z,11.87
2019-03-27T08:13:09.375Z,15.47
2019-03-27T08:18:12.600Z,13.20
2019-03-27T08:23:15.809Z,15.00
2019-03-27T08:28:19.817Z,12.30
2019-03-27T08:33:23.152Z,15.30
2019-03-27T08:38:26.669Z,12.73
2019-03-27T08:43:29.880Z,10.33
2019-03-27T08:48:33.398Z,12.10
2019-03-27T08:53:36.607Z,6.90
2019-03-27T08:58:39.817Z,12.33
2019-03-27T09:03:43.335Z,14.73
2019-03-27T09:08:46.856Z,9.10
2019-03-27T09:13:50.064Z,9.10
2019-03-27T09:18:53.584Z,11.27
2019-03-27T09:23:56.667Z,9.10
2019-03-27T09:29:01.652Z,11.00
2019-03-27T09:34:04.969Z,9.30
2019-03-27T09:39:09.723Z,5.30
2019-03-27T09:44:13.011Z,9.53
2019-03-27T09:49:16.223Z,5.47
2019-03-27T09:54:19.741Z,6.80
2019-03-27T09:59:49.514Z,6.80
2019-03-27T10:04:58.418Z,6.73
2019-03-27T10:10:02.242Z,4.33
2019-03-27T10:15:05.916Z,6.47
2019-03-27T10:20:09.585Z,5.20
2019-03-27T10:25:13.159Z,4.77
2019-03-27T10:30:16.312Z,4.60
2019-03-27T10:35:19.521Z,4.90
2019-03-27T10:40:22.732Z,6.40
2019-03-27T10:45:25.844Z,5.27
2019-03-27T10:50:29.105Z,4.13
2019-03-27T10:55:34.527Z,4.33
2019-03-27T11:00:37.422Z,3.37
2019-03-27T11:05:41.864Z,6.20
2019-03-27T11:10:45.071Z,6.70
2019-03-27T11:15:49.207Z,4.67
2019-03-27T11:20:52.467Z,6.47
2019-03-27T11:25:55.927Z,4.47
2019-03-27T11:31:00.933Z,2.03
2019-03-27T11:36:04.497Z,4.80
2019-03-27T11:41:07.618Z,8.30
2019-03-27T11:46:10.737Z,3.53
2019-03-27T11:51:13.998Z,4.77
2019-03-27T11:56:17.165Z,4.00
2019-03-27T12:01:20.548Z,4.73
2019-03-27T12:06:23.574Z,4.90
2019-03-27T12:11:26.970Z,6.33
2019-03-27T12:16:30.101Z,5.70
2019-03-27T12:21:33.157Z,2.43
2019-03-27T12:26:36.514Z,4.07
2019-03-27T12:31:39.812Z,4.47
2019-03-27T12:36:42.860Z,7.07
2019-03-27T12:41:47.201Z,10.17
2019-03-27T12:46:51.874Z,5.30
2019-03-27T12:51:55.418Z,7.10
2019-03-27T12:56:58.441Z,6.90
2019-03-27T13:02:01.839Z,10.70
2019-03-27T13:07:04.965Z,5.77
2019-03-27T13:12:08.260Z,6.90
2019-03-27T13:17:11.471Z,5.87
2019-03-27T13:22:14.679Z,5.03
2019-03-27T13:27:18.197Z,4.70
2019-03-27T13:32:23.172Z,10.47
2019-03-27T13:37:26.460Z,7.60
2019-03-27T13:42:29.673Z,7.27
2019-03-27T13:47:32.883Z,6.17
2019-03-27T13:52:36.099Z,7.47
2019-03-27T13:57:39.612Z,7.03
2019-03-27T14:02:43.742Z,5.13
2019-03-27T14:07:47.492Z,5.97
2019-03-27T14:12:50.702Z,4.20
2019-03-27T14:17:54.293Z,4.23
2019-03-27T14:22:59.573Z,5.03
2019-03-27T14:28:12.020Z,10.93
2019-03-27T14:33:29.730Z,6.57
2019-03-27T14:38:32.943Z,10.10
2019-03-27T14:43:36.152Z,9.87
2019-03-27T14:48:39.363Z,7.07
2019-03-27T14:53:42.575Z,7.00
2019-03-27T14:58:45.711Z,11.50
2019-03-27T15:03:48.992Z,7.37
2019-03-27T15:08:52.210Z,8.03
2019-03-27T15:13:56.029Z,8.67
2019-03-27T15:18:59.037Z,7.63
2019-03-27T15:24:02.142Z,7.63
2019-03-27T15:29:05.353Z,7.37
2019-03-27T15:34:08.563Z,5.70
2019-03-27T15:39:12.081Z,9.13
2019-03-27T15:44:15.289Z,8.63
2019-03-27T15:49:18.357Z,8.13
2019-03-27T15:54:21.710Z,9.53
2019-03-27T15:59:24.919Z,6.63
2019-03-27T16:04:28.140Z,8.23
2019-03-27T16:09:33.234Z,6.77
2019-03-27T16:14:36.297Z,6.27
2019-03-27T16:19:43.208Z,8.53
2019-03-27T16:24:46.503Z,9.27
2019-03-27T16:29:51.865Z,4.80
2019-03-27T16:34:55.102Z,6.30
2019-03-27T16:40:01.524Z,6.53
2019-03-27T16:45:04.976Z,5.40
2019-03-27T16:50:08.698Z,6.30
2019-03-27T16:55:12.217Z,4.93
2019-03-27T17:00:17.443Z,7.70
2019-03-27T17:05:20.789Z,6.23
2019-03-27T17:10:23.875Z,10.00
2019-03-27T17:15:27.325Z,5.90
2019-03-27T17:20:30.726Z,11.73
2019-03-27T17:25:33.935Z,6.70
2019-03-27T17:30:37.454Z,6.90
2019-03-27T17:35:40.664Z,6.33
2019-03-27T17:40:43.873Z,8.47
2019-03-27T17:45:47.083Z,7.10
2019-03-27T17:50:50.294Z,6.30
2019-03-27T17:55:53.508Z,7.90
2019-03-27T18:01:00.047Z,5.47
2019-03-27T18:06:03.612Z,6.10
2019-03-27T18:11:08.202Z,11.23
2019-03-27T18:16:11.568Z,11.67
2019-03-27T18:21:14.648Z,9.63
2019-03-27T18:26:17.990Z,6.60
2019-03-27T18:31:22.680Z,7.80
2019-03-27T18:36:25.756Z,9.37
2019-03-27T18:41:30.955Z,5.53
2019-03-27T18:46:34.210Z,17.17
2019-03-27T18:51:37.706Z,12.97
2019-03-27T18:56:41.485Z,10.60
2019-03-27T19:01:44.795Z,10.27
2019-03-27T19:06:48.965Z,5.13
2019-03-27T19:11:52.106Z,6.50
2019-03-27T19:16:57.082Z,5.07
2019-03-27T19:22:00.393Z,4.37
2019-03-27T19:27:03.887Z,7.63
2019-03-27T19:32:08.883Z,7.07
2019-03-27T19:37:11.877Z,7.40
2019-03-27T19:42:15.361Z,8.87
2019-03-27T19:47:18.576Z,11.10
2019-03-27T19:52:22.741Z,7.63
2019-03-27T19:57:25.961Z,6.00
2019-03-27T20:02:29.136Z,8.60
2019-03-27T20:07:55.717Z,9.67
2019-03-27T20:12:58.546Z,6.10
2019-03-27T20:18:01.795Z,9.90
2019-03-27T20:23:14.695Z,9.43
2019-03-27T20:28:10.060Z,14.20
2019-03-27T20:33:13.886Z,10.07
2019-03-27T20:38:17.096Z,23.97
2019-03-27T20:43:20.309Z,10.63
2019-03-27T20:48:23.821Z,9.67
2019-03-27T20:53:27.036Z,12.73
2019-03-27T20:58:30.243Z,8.40
2019-03-27T21:03:33.452Z,12.97
2019-03-27T21:08:36.588Z,11.73
2019-03-27T21:13:41.179Z,11.97
2019-03-27T21:18:44.686Z,13.53
2019-03-27T21:23:48.139Z,9.17
2019-03-27T21:28:51.201Z,9.83
2019-03-27T21:33:57.519Z,8.63
2019-03-27T21:38:59.306Z,10.10
2019-03-27T21:44:02.515Z,18.00
2019-03-27T21:49:06.597Z,14.63
2019-03-27T21:54:09.857Z,11.43
2019-03-27T21:59:14.603Z,11.27
2019-03-27T22:04:17.817Z,11.60
2019-03-27T22:09:22.026Z,15.40
2019-03-27T22:14:25.464Z,11.77
2019-03-27T22:19:28.878Z,14.87
2019-03-27T22:24:32.329Z,17.33
2019-03-27T22:29:37.963Z,12.87
2019-03-27T22:34:44.155Z,21.27
2019-03-27T22:39:45.919Z,19.43
2019-03-27T22:44:49.155Z,17.00
2019-03-27T22:49:53.049Z,15.87
2019-03-27T22:54:56.249Z,16.47
2019-03-27T22:59:59.681Z,19.23
2019-03-27T23:05:03.711Z,21.00
2019-03-27T23:10:07.736Z,22.97
2019-03-27T23:15:10.876Z,22.23
2019-03-27T23:20:14.770Z,23.73
2019-03-27T23:25:19.797Z,21.43
2019-03-27T23:30:23.249Z,19.43
2019-03-27T23:35:26.454Z,23.13
2019-03-27T23:40:29.666Z,23.10
2019-03-27T23:45:32.751Z,20.93
2019-03-27T23:50:36.050Z,20.67
2019-03-27T23:55:39.298Z,20.10
